sensor_id;sensor_type;location;lat;lon;timestamp;P1;durP1;ratioP1;P2;durP2;ratioP2
15669;SDS011;18524;45.190;5.732;2022-12-13T00:02:41;62.70;;;33.83;;
15669;SDS011;18524;45.190;5.732;2022-12-13T00:07:32;56.37;;;31.53;;
15669;SDS011;18524;45.190;5.732;2022-12-13T00:12:23;63.40;;;34.17;;
15669;SDS011;18524;45.190;5.732;2022-12-13T00:17:14;64.07;;;34.27;;
15669;SDS011;18524;45.190;5.732;2022-12-13T00:22:04;61.33;;;32.60;;
15669;SDS011;18524;45.190;5.732;2022-12-13T00:26:54;59.73;;;33.20;;
15669;SDS011;18524;45.190;5.732;2022-12-13T00:31:45;56.07;;;32.80;;
15669;SDS011;18524;45.190;5.732;2022-12-13T00:36:35;59.83;;;33.17;;
15669;SDS011;18524;45.190;5.732;2022-12-13T00:41:27;62.50;;;32.97;;
15669;SDS011;18524;45.190;5.732;2022-12-13T00:46:19;59.30;;;31.30;;
15669;SDS011;18524;45.190;5.732;2022-12-13T00:51:11;58.00;;;31.30;;
15669;SDS011;18524;45.190;5.732;2022-12-13T00:56:02;61.07;;;31.47;;
15669;SDS011;18524;45.190;5.732;2022-12-13T01:00:52;62.63;;;33.37;;
15669;SDS011;18524;45.190;5.732;2022-12-13T01:05:51;58.93;;;32.63;;
15669;SDS011;18524;45.190;5.732;2022-12-13T01:10:45;58.97;;;32.33;;
15669;SDS011;18524;45.190;5.732;2022-12-13T01:15:40;60.70;;;33.10;;
15669;SDS011;18524;45.190;5.732;2022-12-13T01:20:34;56.70;;;31.23;;
15669;SDS011;18524;45.190;5.732;2022-12-13T01:25:25;59.60;;;31.33;;
15669;SDS011;18524;45.190;5.732;2022-12-13T01:30:15;58.93;;;32.03;;
15669;SDS011;18524;45.190;5.732;2022-12-13T01:35:05;56.70;;;31.30;;
15669;SDS011;18524;45.190;5.732;2022-12-13T01:39:56;57.37;;;31.47;;
15669;SDS011;18524;45.190;5.732;2022-12-13T01:45:04;55.63;;;29.53;;
15669;SDS011;18524;45.190;5.732;2022-12-13T01:50:08;54.07;;;29.60;;
15669;SDS011;18524;45.190;5.732;2022-12-13T01:55:02;56.23;;;31.00;;
15669;SDS011;18524;45.190;5.732;2022-12-13T01:59:55;52.50;;;28.67;;
15669;SDS011;18524;45.190;5.732;2022-12-13T02:09:43;54.63;;;30.40;;
15669;SDS011;18524;45.190;5.732;2022-12-13T02:14:34;52.67;;;30.07;;
15669;SDS011;18524;45.190;5.732;2022-12-13T02:25:00;55.77;;;31.83;;
15669;SDS011;18524;45.190;5.732;2022-12-13T02:35:36;58.87;;;32.33;;
15669;SDS011;18524;45.190;5.732;2022-12-13T02:40:30;60.23;;;31.97;;
15669;SDS011;18524;45.190;5.732;2022-12-13T02:45:32;57.77;;;31.70;;
15669;SDS011;18524;45.190;5.732;2022-12-13T02:50:29;59.37;;;31.93;;
15669;SDS011;18524;45.190;5.732;2022-12-13T02:55:21;62.93;;;32.07;;
15669;SDS011;18524;45.190;5.732;2022-12-13T03:11:08;50.17;;;27.60;;
15669;SDS011;18524;45.190;5.732;2022-12-13T03:16:13;50.67;;;27.40;;
15669;SDS011;18524;45.190;5.732;2022-12-13T03:21:16;53.57;;;27.20;;
15669;SDS011;18524;45.190;5.732;2022-12-13T03:26:11;44.03;;;25.57;;
15669;SDS011;18524;45.190;5.732;2022-12-13T03:31:04;49.40;;;27.37;;
15669;SDS011;18524;45.190;5.732;2022-12-13T03:35:55;46.03;;;25.97;;
15669;SDS011;18524;45.190;5.732;2022-12-13T03:40:46;44.37;;;25.70;;
15669;SDS011;18524;45.190;5.732;2022-12-13T03:45:37;47.13;;;28.27;;
15669;SDS011;18524;45.190;5.732;2022-12-13T03:50:27;40.87;;;24.17;;
15669;SDS011;18524;45.190;5.732;2022-12-13T03:55:17;38.80;;;22.73;;
15669;SDS011;18524;45.190;5.732;2022-12-13T04:00:08;40.73;;;23.17;;
15669;SDS011;18524;45.190;5.732;2022-12-13T04:04:59;38.47;;;21.93;;
15669;SDS011;18524;45.190;5.732;2022-12-13T04:09:49;38.20;;;21.70;;
15669;SDS011;18524;45.190;5.732;2022-12-13T04:14:40;38.77;;;22.30;;
15669;SDS011;18524;45.190;5.732;2022-12-13T04:19:30;41.60;;;23.07;;
15669;SDS011;18524;45.190;5.732;2022-12-13T04:24:21;40.57;;;23.13;;
15669;SDS011;18524;45.190;5.732;2022-12-13T04:29:12;38.07;;;22.40;;
15669;SDS011;18524;45.190;5.732;2022-12-13T04:34:02;40.43;;;22.53;;
15669;SDS011;18524;45.190;5.732;2022-12-13T04:38:53;38.23;;;23.20;;
15669;SDS011;18524;45.190;5.732;2022-12-13T04:43:43;39.40;;;22.33;;
15669;SDS011;18524;45.190;5.732;2022-12-13T04:48:39;36.93;;;21.00;;
15669;SDS011;18524;45.190;5.732;2022-12-13T04:53:29;31.70;;;18.83;;
15669;SDS011;18524;45.190;5.732;2022-12-13T04:58:20;32.73;;;19.53;;
15669;SDS011;18524;45.190;5.732;2022-12-13T05:03:10;38.87;;;20.73;;
15669;SDS011;18524;45.190;5.732;2022-12-13T05:08:00;36.93;;;20.33;;
15669;SDS011;18524;45.190;5.732;2022-12-13T05:12:51;35.87;;;19.07;;
15669;SDS011;18524;45.190;5.732;2022-12-13T05:17:41;32.30;;;18.90;;
15669;SDS011;18524;45.190;5.732;2022-12-13T05:22:31;32.27;;;18.70;;
15669;SDS011;18524;45.190;5.732;2022-12-13T05:27:22;35.00;;;20.10;;
15669;SDS011;18524;45.190;5.732;2022-12-13T05:32:12;30.87;;;18.40;;
15669;SDS011;18524;45.190;5.732;2022-12-13T05:37:03;29.47;;;17.37;;
15669;SDS011;18524;45.190;5.732;2022-12-13T05:41:53;33.50;;;18.27;;
15669;SDS011;18524;45.190;5.732;2022-12-13T05:46:45;32.63;;;17.60;;
15669;SDS011;18524;45.190;5.732;2022-12-13T05:51:35;27.67;;;16.63;;
15669;SDS011;18524;45.190;5.732;2022-12-13T05:56:25;29.77;;;17.33;;
15669;SDS011;18524;45.190;5.732;2022-12-13T06:01:16;29.30;;;16.27;;
15669;SDS011;18524;45.190;5.732;2022-12-13T06:06:07;29.40;;;18.00;;
15669;SDS011;18524;45.190;5.732;2022-12-13T06:11:00;28.37;;;16.23;;
15669;SDS011;18524;45.190;5.732;2022-12-13T06:15:51;25.73;;;15.67;;
15669;SDS011;18524;45.190;5.732;2022-12-13T06:20:43;26.83;;;15.60;;
15669;SDS011;18524;45.190;5.732;2022-12-13T06:25:34;25.00;;;15.60;;
15669;SDS011;18524;45.190;5.732;2022-12-13T06:30:25;26.83;;;15.00;;
15669;SDS011;18524;45.190;5.732;2022-12-13T06:35:16;23.97;;;15.20;;
15669;SDS011;18524;45.190;5.732;2022-12-13T06:40:06;26.20;;;15.93;;
15669;SDS011;18524;45.190;5.732;2022-12-13T06:44:57;26.30;;;16.17;;
15669;SDS011;18524;45.190;5.732;2022-12-13T06:49:47;27.10;;;16.87;;
15669;SDS011;18524;45.190;5.732;2022-12-13T06:54:38;27.77;;;16.27;;
15669;SDS011;18524;45.190;5.732;2022-12-13T06:59:28;31.30;;;17.60;;
15669;SDS011;18524;45.190;5.732;2022-12-13T07:04:19;29.67;;;16.90;;
15669;SDS011;18524;45.190;5.732;2022-12-13T07:09:09;30.43;;;16.90;;
15669;SDS011;18524;45.190;5.732;2022-12-13T07:14:00;29.43;;;16.67;;
15669;SDS011;18524;45.190;5.732;2022-12-13T07:18:57;32.63;;;17.57;;
15669;SDS011;18524;45.190;5.732;2022-12-13T07:23:48;32.07;;;18.13;;
15669;SDS011;18524;45.190;5.732;2022-12-13T07:28:42;28.47;;;17.23;;
15669;SDS011;18524;45.190;5.732;2022-12-13T07:33:32;29.07;;;17.27;;
15669;SDS011;18524;45.190;5.732;2022-12-13T07:38:23;30.00;;;17.33;;
15669;SDS011;18524;45.190;5.732;2022-12-13T07:43:14;31.03;;;18.27;;
15669;SDS011;18524;45.190;5.732;2022-12-13T07:48:05;31.70;;;17.97;;
15669;SDS011;18524;45.190;5.732;2022-12-13T07:52:55;33.47;;;18.80;;
15669;SDS011;18524;45.190;5.732;2022-12-13T07:57:46;31.80;;;18.77;;
15669;SDS011;18524;45.190;5.732;2022-12-13T08:02:36;33.10;;;19.43;;
15669;SDS011;18524;45.190;5.732;2022-12-13T08:07:28;32.83;;;18.80;;
15669;SDS011;18524;45.190;5.732;2022-12-13T08:12:18;32.93;;;18.87;;
15669;SDS011;18524;45.190;5.732;2022-12-13T08:17:09;32.20;;;18.50;;
15669;SDS011;18524;45.190;5.732;2022-12-13T08:21:59;33.73;;;18.57;;
15669;SDS011;18524;45.190;5.732;2022-12-13T08:26:49;34.53;;;19.23;;
15669;SDS011;18524;45.190;5.732;2022-12-13T08:31:40;33.53;;;19.37;;
15669;SDS011;18524;45.190;5.732;2022-12-13T08:36:30;34.20;;;19.23;;
15669;SDS011;18524;45.190;5.732;2022-12-13T08:41:21;35.43;;;20.17;;
15669;SDS011;18524;45.190;5.732;2022-12-13T08:46:11;34.33;;;19.87;;
15669;SDS011;18524;45.190;5.732;2022-12-13T08:51:02;36.63;;;20.60;;
15669;SDS011;18524;45.190;5.732;2022-12-13T08:56:02;37.80;;;21.23;;
15669;SDS011;18524;45.190;5.732;2022-12-13T09:00:56;36.83;;;21.60;;
15669;SDS011;18524;45.190;5.732;2022-12-13T09:05:46;36.40;;;20.13;;
15669;SDS011;18524;45.190;5.732;2022-12-13T09:10:37;40.17;;;21.23;;
15669;SDS011;18524;45.190;5.732;2022-12-13T09:15:28;35.73;;;20.83;;
15669;SDS011;18524;45.190;5.732;2022-12-13T09:20:20;38.00;;;20.73;;
15669;SDS011;18524;45.190;5.732;2022-12-13T09:25:11;37.90;;;20.93;;
15669;SDS011;18524;45.190;5.732;2022-12-13T09:30:01;37.40;;;20.70;;
15669;SDS011;18524;45.190;5.732;2022-12-13T09:34:52;35.27;;;20.03;;
15669;SDS011;18524;45.190;5.732;2022-12-13T09:39:43;37.13;;;20.97;;
15669;SDS011;18524;45.190;5.732;2022-12-13T09:44:38;36.33;;;21.20;;
15669;SDS011;18524;45.190;5.732;2022-12-13T09:49:35;36.87;;;21.20;;
15669;SDS011;18524;45.190;5.732;2022-12-13T09:54:29;34.57;;;20.70;;
15669;SDS011;18524;45.190;5.732;2022-12-13T09:59:40;35.00;;;19.60;;
15669;SDS011;18524;45.190;5.732;2022-12-13T10:04:30;32.47;;;19.27;;
15669;SDS011;18524;45.190;5.732;2022-12-13T10:09:20;35.70;;;19.90;;
15669;SDS011;18524;45.190;5.732;2022-12-13T10:14:13;35.70;;;21.10;;
15669;SDS011;18524;45.190;5.732;2022-12-13T10:19:17;33.90;;;20.17;;
15669;SDS011;18524;45.190;5.732;2022-12-13T10:24:15;34.77;;;20.30;;
15669;SDS011;18524;45.190;5.732;2022-12-13T10:29:09;34.17;;;19.80;;
15669;SDS011;18524;45.190;5.732;2022-12-13T10:34:00;34.80;;;21.00;;
15669;SDS011;18524;45.190;5.732;2022-12-13T10:38:50;38.90;;;22.83;;
15669;SDS011;18524;45.190;5.732;2022-12-13T10:43:41;35.07;;;20.50;;
15669;SDS011;18524;45.190;5.732;2022-12-13T10:53:30;33.40;;;20.13;;
15669;SDS011;18524;45.190;5.732;2022-12-13T10:58:24;34.07;;;19.93;;
15669;SDS011;18524;45.190;5.732;2022-12-13T11:03:29;32.60;;;19.47;;
15669;SDS011;18524;45.190;5.732;2022-12-13T11:08:22;32.33;;;18.97;;
15669;SDS011;18524;45.190;5.732;2022-12-13T11:13:21;32.90;;;19.83;;
15669;SDS011;18524;45.190;5.732;2022-12-13T11:18:19;33.20;;;20.30;;
15669;SDS011;18524;45.190;5.732;2022-12-13T11:23:19;33.63;;;19.57;;
15669;SDS011;18524;45.190;5.732;2022-12-13T11:28:20;33.47;;;20.03;;
15669;SDS011;18524;45.190;5.732;2022-12-13T11:44:00;38.77;;;22.03;;
15669;SDS011;18524;45.190;5.732;2022-12-13T11:49:16;35.47;;;21.03;;
15669;SDS011;18524;45.190;5.732;2022-12-13T11:59:20;38.30;;;22.10;;
15669;SDS011;18524;45.190;5.732;2022-12-13T12:09:28;38.97;;;23.10;;
15669;SDS011;18524;45.190;5.732;2022-12-13T12:19:43;40.47;;;23.37;;
15669;SDS011;18524;45.190;5.732;2022-12-13T12:34:54;44.10;;;24.80;;
15669;SDS011;18524;45.190;5.732;2022-12-13T12:50:36;41.93;;;24.20;;
15669;SDS011;18524;45.190;5.732;2022-12-13T13:00:30;39.97;;;24.13;;
15669;SDS011;18524;45.190;5.732;2022-12-13T13:05:43;39.03;;;23.67;;
15669;SDS011;18524;45.190;5.732;2022-12-13T13:10:56;40.93;;;24.53;;
15669;SDS011;18524;45.190;5.732;2022-12-13T13:15:54;39.77;;;24.30;;
15669;SDS011;18524;45.190;5.732;2022-12-13T13:20:46;40.57;;;25.33;;
15669;SDS011;18524;45.190;5.732;2022-12-13T13:26:30;36.93;;;23.43;;
15669;SDS011;18524;45.190;5.732;2022-12-13T13:31:21;38.90;;;23.27;;
15669;SDS011;18524;45.190;5.732;2022-12-13T13:47:08;38.60;;;24.37;;
15669;SDS011;18524;45.190;5.732;2022-12-13T13:52:19;40.97;;;23.87;;
15669;SDS011;18524;45.190;5.732;2022-12-13T14:29:00;41.43;;;24.30;;
15669;SDS011;18524;45.190;5.732;2022-12-13T14:33:54;41.33;;;24.87;;
15669;SDS011;18524;45.190;5.732;2022-12-13T14:38:46;44.13;;;26.30;;
15669;SDS011;18524;45.190;5.732;2022-12-13T14:43:37;41.97;;;25.47;;
15669;SDS011;18524;45.190;5.732;2022-12-13T14:48:33;45.77;;;26.47;;
15669;SDS011;18524;45.190;5.732;2022-12-13T14:53:33;44.90;;;27.30;;
15669;SDS011;18524;45.190;5.732;2022-12-13T14:58:28;46.83;;;26.03;;
15669;SDS011;18524;45.190;5.732;2022-12-13T15:03:21;43.77;;;26.13;;
15669;SDS011;18524;45.190;5.732;2022-12-13T15:08:14;43.90;;;24.87;;
15669;SDS011;18524;45.190;5.732;2022-12-13T15:13:05;43.27;;;26.63;;
15669;SDS011;18524;45.190;5.732;2022-12-13T15:23:03;41.17;;;25.27;;
15669;SDS011;18524;45.190;5.732;2022-12-13T15:28:01;42.03;;;24.43;;
15669;SDS011;18524;45.190;5.732;2022-12-13T15:33:03;39.73;;;23.47;;
15669;SDS011;18524;45.190;5.732;2022-12-13T15:38:12;41.50;;;25.23;;
15669;SDS011;18524;45.190;5.732;2022-12-13T15:43:05;36.30;;;22.77;;
15669;SDS011;18524;45.190;5.732;2022-12-13T15:48:02;38.53;;;23.97;;
15669;SDS011;18524;45.190;5.732;2022-12-13T15:52:58;40.23;;;24.50;;
15669;SDS011;18524;45.190;5.732;2022-12-13T16:02:50;40.63;;;24.93;;
15669;SDS011;18524;45.190;5.732;2022-12-13T16:07:47;40.87;;;24.90;;
15669;SDS011;18524;45.190;5.732;2022-12-13T16:12:45;38.67;;;23.43;;
15669;SDS011;18524;45.190;5.732;2022-12-13T16:17:39;37.73;;;23.63;;
15669;SDS011;18524;45.190;5.732;2022-12-13T16:22:30;40.83;;;24.40;;
15669;SDS011;18524;45.190;5.732;2022-12-13T16:27:20;40.90;;;25.40;;
15669;SDS011;18524;45.190;5.732;2022-12-13T16:32:10;39.70;;;24.90;;
15669;SDS011;18524;45.190;5.732;2022-12-13T16:37:01;44.80;;;25.67;;
15669;SDS011;18524;45.190;5.732;2022-12-13T16:41:51;40.27;;;24.57;;
15669;SDS011;18524;45.190;5.732;2022-12-13T16:46:43;40.47;;;24.10;;
15669;SDS011;18524;45.190;5.732;2022-12-13T16:51:33;40.50;;;24.87;;
15669;SDS011;18524;45.190;5.732;2022-12-13T16:56:24;42.80;;;26.67;;
15669;SDS011;18524;45.190;5.732;2022-12-13T17:01:16;41.67;;;24.47;;
15669;SDS011;18524;45.190;5.732;2022-12-13T17:06:11;38.20;;;23.83;;
15669;SDS011;18524;45.190;5.732;2022-12-13T17:11:04;38.20;;;23.43;;
15669;SDS011;18524;45.190;5.732;2022-12-13T17:15:56;40.83;;;25.90;;
15669;SDS011;18524;45.190;5.732;2022-12-13T17:20:46;41.53;;;25.33;;
15669;SDS011;18524;45.190;5.732;2022-12-13T17:25:37;40.03;;;25.57;;
15669;SDS011;18524;45.190;5.732;2022-12-13T17:30:29;47.10;;;30.07;;
15669;SDS011;18524;45.190;5.732;2022-12-13T17:35:24;52.03;;;32.23;;
15669;SDS011;18524;45.190;5.732;2022-12-13T17:40:16;60.47;;;44.33;;
15669;SDS011;18524;45.190;5.732;2022-12-13T17:45:06;42.10;;;27.80;;
15669;SDS011;18524;45.190;5.732;2022-12-13T17:49:57;42.43;;;26.40;;
15669;SDS011;18524;45.190;5.732;2022-12-13T17:54:47;39.47;;;26.00;;
15669;SDS011;18524;45.190;5.732;2022-12-13T17:59:37;40.83;;;25.50;;
15669;SDS011;18524;45.190;5.732;2022-12-13T18:04:29;42.50;;;25.87;;
15669;SDS011;18524;45.190;5.732;2022-12-13T18:09:20;36.70;;;23.23;;
15669;SDS011;18524;45.190;5.732;2022-12-13T18:14:10;40.10;;;26.03;;
15669;SDS011;18524;45.190;5.732;2022-12-13T18:19:01;42.30;;;26.40;;
15669;SDS011;18524;45.190;5.732;2022-12-13T18:23:51;45.63;;;28.13;;
15669;SDS011;18524;45.190;5.732;2022-12-13T18:28:43;43.90;;;27.20;;
15669;SDS011;18524;45.190;5.732;2022-12-13T18:33:34;36.90;;;24.47;;
15669;SDS011;18524;45.190;5.732;2022-12-13T18:38:25;38.33;;;24.90;;
15669;SDS011;18524;45.190;5.732;2022-12-13T18:43:16;36.87;;;24.17;;
15669;SDS011;18524;45.190;5.732;2022-12-13T18:48:07;38.33;;;24.67;;
15669;SDS011;18524;45.190;5.732;2022-12-13T18:52:57;45.93;;;29.50;;
15669;SDS011;18524;45.190;5.732;2022-12-13T18:57:50;40.43;;;25.97;;
15669;SDS011;18524;45.190;5.732;2022-12-13T19:02:41;41.00;;;25.53;;
15669;SDS011;18524;45.190;5.732;2022-12-13T19:07:31;51.40;;;30.73;;
15669;SDS011;18524;45.190;5.732;2022-12-13T19:12:22;46.77;;;28.50;;
15669;SDS011;18524;45.190;5.732;2022-12-13T19:17:12;42.80;;;27.13;;
15669;SDS011;18524;45.190;5.732;2022-12-13T19:22:03;49.10;;;29.93;;
15669;SDS011;18524;45.190;5.732;2022-12-13T19:26:53;46.87;;;28.77;;
15669;SDS011;18524;45.190;5.732;2022-12-13T19:31:43;40.17;;;26.87;;
15669;SDS011;18524;45.190;5.732;2022-12-13T19:36:34;52.27;;;31.13;;
15669;SDS011;18524;45.190;5.732;2022-12-13T19:41:24;47.93;;;29.80;;
15669;SDS011;18524;45.190;5.732;2022-12-13T19:46:15;47.80;;;30.50;;
15669;SDS011;18524;45.190;5.732;2022-12-13T19:51:06;53.10;;;30.37;;
15669;SDS011;18524;45.190;5.732;2022-12-13T19:55:57;45.83;;;29.80;;
15669;SDS011;18524;45.190;5.732;2022-12-13T20:00:48;45.83;;;29.47;;
15669;SDS011;18524;45.190;5.732;2022-12-13T20:05:38;44.60;;;29.27;;
15669;SDS011;18524;45.190;5.732;2022-12-13T20:10:29;44.67;;;28.43;;
15669;SDS011;18524;45.190;5.732;2022-12-13T20:15:20;42.77;;;28.03;;
15669;SDS011;18524;45.190;5.732;2022-12-13T20:20:11;45.03;;;29.23;;
15669;SDS011;18524;45.190;5.732;2022-12-13T20:25:01;51.57;;;30.23;;
15669;SDS011;18524;45.190;5.732;2022-12-13T20:29:51;46.77;;;29.00;;
15669;SDS011;18524;45.190;5.732;2022-12-13T20:34:42;46.27;;;30.40;;
15669;SDS011;18524;45.190;5.732;2022-12-13T20:39:33;47.13;;;30.10;;
15669;SDS011;18524;45.190;5.732;2022-12-13T20:44:23;50.00;;;29.73;;
15669;SDS011;18524;45.190;5.732;2022-12-13T20:49:14;44.60;;;29.20;;
15669;SDS011;18524;45.190;5.732;2022-12-13T20:54:05;45.30;;;28.77;;
15669;SDS011;18524;45.190;5.732;2022-12-13T20:58:56;49.17;;;31.67;;
15669;SDS011;18524;45.190;5.732;2022-12-13T21:03:46;49.47;;;29.83;;
15669;SDS011;18524;45.190;5.732;2022-12-13T21:08:37;48.53;;;29.27;;
15669;SDS011;18524;45.190;5.732;2022-12-13T21:13:40;48.37;;;29.90;;
15669;SDS011;18524;45.190;5.732;2022-12-13T21:18:30;51.40;;;29.87;;
15669;SDS011;18524;45.190;5.732;2022-12-13T21:23:20;49.37;;;30.20;;
15669;SDS011;18524;45.190;5.732;2022-12-13T21:28:11;52.30;;;30.47;;
15669;SDS011;18524;45.190;5.732;2022-12-13T21:33:02;52.00;;;31.33;;
15669;SDS011;18524;45.190;5.732;2022-12-13T21:37:52;50.90;;;31.37;;
15669;SDS011;18524;45.190;5.732;2022-12-13T21:42:43;50.30;;;30.97;;
15669;SDS011;18524;45.190;5.732;2022-12-13T21:47:33;51.47;;;30.67;;
15669;SDS011;18524;45.190;5.732;2022-12-13T21:52:23;50.50;;;30.87;;
15669;SDS011;18524;45.190;5.732;2022-12-13T21:57:14;52.77;;;29.50;;
15669;SDS011;18524;45.190;5.732;2022-12-13T22:02:22;51.83;;;30.57;;
15669;SDS011;18524;45.190;5.732;2022-12-13T22:07:30;51.80;;;29.43;;
15669;SDS011;18524;45.190;5.732;2022-12-13T22:12:23;59.70;;;33.83;;
15669;SDS011;18524;45.190;5.732;2022-12-13T22:17:14;52.03;;;30.60;;
15669;SDS011;18524;45.190;5.732;2022-12-13T22:22:04;50.33;;;30.53;;
15669;SDS011;18524;45.190;5.732;2022-12-13T22:26:55;44.87;;;28.40;;
15669;SDS011;18524;45.190;5.732;2022-12-13T22:31:45;51.67;;;30.60;;
15669;SDS011;18524;45.190;5.732;2022-12-13T22:36:36;48.70;;;30.07;;
15669;SDS011;18524;45.190;5.732;2022-12-13T22:41:26;49.80;;;28.93;;
15669;SDS011;18524;45.190;5.732;2022-12-13T22:46:17;48.50;;;29.20;;
15669;SDS011;18524;45.190;5.732;2022-12-13T22:51:13;49.30;;;29.77;;
15669;SDS011;18524;45.190;5.732;2022-12-13T22:56:05;52.03;;;29.17;;
15669;SDS011;18524;45.190;5.732;2022-12-13T23:01:10;48.90;;;29.03;;
15669;SDS011;18524;45.190;5.732;2022-12-13T23:06:36;49.77;;;29.50;;
15669;SDS011;18524;45.190;5.732;2022-12-13T23:11:21;54.07;;;30.30;;
15669;SDS011;18524;45.190;5.732;2022-12-13T23:16:31;50.27;;;29.07;;
15669;SDS011;18524;45.190;5.732;2022-12-13T23:21:22;51.40;;;29.87;;
15669;SDS011;18524;45.190;5.732;2022-12-13T23:26:18;48.60;;;29.23;;
15669;SDS011;18524;45.190;5.732;2022-12-13T23:31:10;46.50;;;28.33;;
15669;SDS011;18524;45.190;5.732;2022-12-13T23:36:02;45.67;;;27.50;;
15669;SDS011;18524;45.190;5.732;2022-12-13T23:41:05;46.10;;;28.03;;
15669;SDS011;18524;45.190;5.732;2022-12-13T23:46:00;44.10;;;27.63;;
15669;SDS011;18524;45.190;5.732;2022-12-13T23:50:52;45.40;;;28.03;;
15669;SDS011;18524;45.190;5.732;2022-12-13T23:55:43;45.40;;;28.03;;
